sensor_id;sensor_type;location;lat;lon;timestamp;pressure;altitude;pressure_sealevel;temperature
42119;BMP280;27783;42.782;23.274;2023-04-24T00:01:12;95270.81;;;9.28
42119;BMP280;27783;42.782;23.274;2023-04-24T00:03:38;95266.28;;;9.39
42119;BMP280;27783;42.782;23.274;2023-04-24T00:06:04;95266.25;;;9.46
42119;BMP280;27783;42.782;23.274;2023-04-24T00:08:31;95248.88;;;9.72
42119;BMP280;27783;42.782;23.274;2023-04-24T00:10:58;95249.63;;;9.79
42119;BMP280;27783;42.782;23.274;2023-04-24T00:13:23;95246.25;;;9.79
42119;BMP280;27783;42.782;23.274;2023-04-24T00:15:49;95251.16;;;9.70
42119;BMP280;27783;42.782;23.274;2023-04-24T00:18:14;95251.91;;;9.77
42119;BMP280;27783;42.782;23.274;2023-04-24T00:20:40;95240.69;;;9.53
42119;BMP280;27783;42.782;23.274;2023-04-24T00:23:05;95246.69;;;9.57
42119;BMP280;27783;42.782;23.274;2023-04-24T00:25:31;95261.34;;;9.58
42119;BMP280;27783;42.782;23.274;2023-04-24T00:27:56;95253.84;;;9.46
42119;BMP280;27783;42.782;23.274;2023-04-24T00:30:22;95250.44;;;9.56
42119;BMP280;27783;42.782;23.274;2023-04-24T00:32:47;95259.03;;;9.70
42119;BMP280;27783;42.782;23.274;2023-04-24T00:35:12;95251.50;;;9.85
42119;BMP280;27783;42.782;23.274;2023-04-24T00:37:38;95250.72;;;9.85
42119;BMP280;27783;42.782;23.274;2023-04-24T00:40:04;95253.38;;;9.78
42119;BMP280;27783;42.782;23.274;2023-04-24T00:42:29;95248.94;;;9.51
42119;BMP280;27783;42.782;23.274;2023-04-24T00:44:56;95243.78;;;9.28
42119;BMP280;27783;42.782;23.274;2023-04-24T00:47:21;95247.47;;;9.44
42119;BMP280;27783;42.782;23.274;2023-04-24T00:49:47;95242.47;;;9.86
42119;BMP280;27783;42.782;23.274;2023-04-24T00:52:12;95241.06;;;9.51
42119;BMP280;27783;42.782;23.274;2023-04-24T00:54:45;95245.13;;;9.80
42119;BMP280;27783;42.782;23.274;2023-04-24T00:57:12;95241.22;;;10.04
42119;BMP280;27783;42.782;23.274;2023-04-24T00:59:39;95247.31;;;9.91
42119;BMP280;27783;42.782;23.274;2023-04-24T01:02:06;95243.66;;;9.55
42119;BMP280;27783;42.782;23.274;2023-04-24T01:04:32;95242.97;;;9.51
42119;BMP280;27783;42.782;23.274;2023-04-24T01:06:58;95240.38;;;9.27
42119;BMP280;27783;42.782;23.274;2023-04-24T01:09:23;95230.13;;;9.63
42119;BMP280;27783;42.782;23.274;2023-04-24T01:11:49;95233.94;;;9.38
42119;BMP280;27783;42.782;23.274;2023-04-24T01:14:15;95239.22;;;9.38
42119;BMP280;27783;42.782;23.274;2023-04-24T01:16:40;95228.75;;;9.32
42119;BMP280;27783;42.782;23.274;2023-04-24T01:19:07;95235.56;;;8.95
42119;BMP280;27783;42.782;23.274;2023-04-24T01:21:35;95238.91;;;9.06
42119;BMP280;27783;42.782;23.274;2023-04-24T01:24:02;95221.22;;;9.33
42119;BMP280;27783;42.782;23.274;2023-04-24T01:26:27;95239.28;;;9.15
42119;BMP280;27783;42.782;23.274;2023-04-24T01:28:53;95223.91;;;8.96
42119;BMP280;27783;42.782;23.274;2023-04-24T01:31:18;95229.56;;;8.95
42119;BMP280;27783;42.782;23.274;2023-04-24T01:33:44;95218.31;;;8.67
42119;BMP280;27783;42.782;23.274;2023-04-24T01:36:11;95216.44;;;8.74
42119;BMP280;27783;42.782;23.274;2023-04-24T01:38:37;95218.28;;;8.94
42119;BMP280;27783;42.782;23.274;2023-04-24T01:41:02;95227.28;;;8.18
42119;BMP280;27783;42.782;23.274;2023-04-24T01:43:28;95223.94;;;8.35
42119;BMP280;27783;42.782;23.274;2023-04-24T01:45:54;95222.06;;;8.25
42119;BMP280;27783;42.782;23.274;2023-04-24T01:48:19;95218.69;;;8.28
42119;BMP280;27783;42.782;23.274;2023-04-24T01:50:45;95219.06;;;8.54
42119;BMP280;27783;42.782;23.274;2023-04-24T01:53:11;95217.59;;;8.43
42119;BMP280;27783;42.782;23.274;2023-04-24T01:55:36;95217.53;;;8.05
42119;BMP280;27783;42.782;23.274;2023-04-24T01:58:02;95206.31;;;8.25
42119;BMP280;27783;42.782;23.274;2023-04-24T02:00:27;95209.69;;;8.49
42119;BMP280;27783;42.782;23.274;2023-04-24T02:02:52;95215.28;;;8.17
42119;BMP280;27783;42.782;23.274;2023-04-24T02:05:18;95213.00;;;7.99
42119;BMP280;27783;42.782;23.274;2023-04-24T02:07:43;95210.75;;;8.01
42119;BMP280;27783;42.782;23.274;2023-04-24T02:10:09;95207.78;;;8.13
42119;BMP280;27783;42.782;23.274;2023-04-24T02:12:35;95204.00;;;8.03
42119;BMP280;27783;42.782;23.274;2023-04-24T02:15:00;95207.03;;;8.02
42119;BMP280;27783;42.782;23.274;2023-04-24T02:17:25;95214.94;;;7.22
42119;BMP280;27783;42.782;23.274;2023-04-24T02:19:51;95206.22;;;7.01
42119;BMP280;27783;42.782;23.274;2023-04-24T02:22:16;95201.25;;;7.59
42119;BMP280;27783;42.782;23.274;2023-04-24T02:24:42;95198.72;;;7.86
42119;BMP280;27783;42.782;23.274;2023-04-24T02:27:07;95200.25;;;7.01
42119;BMP280;27783;42.782;23.274;2023-04-24T02:29:33;95195.97;;;7.46
42119;BMP280;27783;42.782;23.274;2023-04-24T02:31:58;95198.75;;;7.93
42119;BMP280;27783;42.782;23.274;2023-04-24T02:34:24;95191.91;;;7.65
42119;BMP280;27783;42.782;23.274;2023-04-24T02:36:49;95188.97;;;7.90
42119;BMP280;27783;42.782;23.274;2023-04-24T02:39:15;95188.09;;;7.49
42119;BMP280;27783;42.782;23.274;2023-04-24T02:41:43;95198.63;;;7.52
42119;BMP280;27783;42.782;23.274;2023-04-24T02:44:09;95188.16;;;7.66
42119;BMP280;27783;42.782;23.274;2023-04-24T02:46:35;95190.72;;;7.49
42119;BMP280;27783;42.782;23.274;2023-04-24T02:49:00;95192.81;;;7.13
42119;BMP280;27783;42.782;23.274;2023-04-24T02:51:25;95187.31;;;7.38
42119;BMP280;27783;42.782;23.274;2023-04-24T02:53:52;95191.72;;;6.51
42119;BMP280;27783;42.782;23.274;2023-04-24T02:56:17;95189.13;;;6.58
42119;BMP280;27783;42.782;23.274;2023-04-24T02:58:42;95192.75;;;6.99
42119;BMP280;27783;42.782;23.274;2023-04-24T03:01:08;95186.38;;;6.97
42119;BMP280;27783;42.782;23.274;2023-04-24T03:03:35;95199.44;;;6.38
42119;BMP280;27783;42.782;23.274;2023-04-24T03:06:01;95190.94;;;6.51
42119;BMP280;27783;42.782;23.274;2023-04-24T03:08:26;95196.72;;;6.73
42119;BMP280;27783;42.782;23.274;2023-04-24T03:10:52;95192.31;;;6.87
42119;BMP280;27783;42.782;23.274;2023-04-24T03:13:17;95199.78;;;6.85
42119;BMP280;27783;42.782;23.274;2023-04-24T03:15:42;95204.53;;;6.70
42119;BMP280;27783;42.782;23.274;2023-04-24T03:18:08;95197.75;;;6.65
42119;BMP280;27783;42.782;23.274;2023-04-24T03:20:33;95198.16;;;6.18
42119;BMP280;27783;42.782;23.274;2023-04-24T03:22:59;95192.25;;;5.86
42119;BMP280;27783;42.782;23.274;2023-04-24T03:25:24;95194.59;;;6.40
42119;BMP280;27783;42.782;23.274;2023-04-24T03:27:50;95194.72;;;6.57
42119;BMP280;27783;42.782;23.274;2023-04-24T03:30:15;95200.78;;;6.18
42119;BMP280;27783;42.782;23.274;2023-04-24T03:32:40;95196.63;;;6.60
42119;BMP280;27783;42.782;23.274;2023-04-24T03:35:07;95197.03;;;6.68
42119;BMP280;27783;42.782;23.274;2023-04-24T03:37:33;95200.38;;;6.62
42119;BMP280;27783;42.782;23.274;2023-04-24T03:39:59;95197.78;;;6.69
42119;BMP280;27783;42.782;23.274;2023-04-24T03:42:24;95191.34;;;6.56
42119;BMP280;27783;42.782;23.274;2023-04-24T03:44:50;95193.06;;;6.88
42119;BMP280;27783;42.782;23.274;2023-04-24T03:47:15;95189.28;;;6.82
42119;BMP280;27783;42.782;23.274;2023-04-24T03:49:40;95193.91;;;7.05
42119;BMP280;27783;42.782;23.274;2023-04-24T03:52:06;95190.13;;;6.99
42119;BMP280;27783;42.782;23.274;2023-04-24T03:54:31;95197.75;;;7.28
42119;BMP280;27783;42.782;23.274;2023-04-24T03:56:56;95190.25;;;7.23
42119;BMP280;27783;42.782;23.274;2023-04-24T03:59:22;95194.00;;;7.22
42119;BMP280;27783;42.782;23.274;2023-04-24T04:01:47;95192.19;;;7.36
42119;BMP280;27783;42.782;23.274;2023-04-24T04:04:13;95193.69;;;7.44
42119;BMP280;27783;42.782;23.274;2023-04-24T04:06:38;95190.72;;;7.46
42119;BMP280;27783;42.782;23.274;2023-04-24T04:09:03;95192.66;;;7.65
42119;BMP280;27783;42.782;23.274;2023-04-24T04:11:29;95195.69;;;7.81
42119;BMP280;27783;42.782;23.274;2023-04-24T04:13:55;95206.19;;;7.78
42119;BMP280;27783;42.782;23.274;2023-04-24T04:16:22;95198.03;;;7.96
42119;BMP280;27783;42.782;23.274;2023-04-24T04:18:48;95201.34;;;7.90
42119;BMP280;27783;42.782;23.274;2023-04-24T04:21:13;95204.63;;;7.56
42119;BMP280;27783;42.782;23.274;2023-04-24T04:23:39;95211.16;;;7.96
42119;BMP280;27783;42.782;23.274;2023-04-24T04:26:06;95212.97;;;7.96
42119;BMP280;27783;42.782;23.274;2023-04-24T04:28:33;95213.78;;;8.10
42119;BMP280;27783;42.782;23.274;2023-04-24T04:30:58;95216.81;;;8.32
42119;BMP280;27783;42.782;23.274;2023-04-24T04:33:24;95214.19;;;8.39
42119;BMP280;27783;42.782;23.274;2023-04-24T04:35:50;95213.06;;;8.43
42119;BMP280;27783;42.782;23.274;2023-04-24T04:38:17;95214.94;;;8.53
42119;BMP280;27783;42.782;23.274;2023-04-24T04:40:43;95219.81;;;8.68
42119;BMP280;27783;42.782;23.274;2023-04-24T04:43:09;95218.66;;;8.76
42119;BMP280;27783;42.782;23.274;2023-04-24T04:45:35;95220.53;;;8.92
42119;BMP280;27783;42.782;23.274;2023-04-24T04:48:01;95233.72;;;8.85
42119;BMP280;27783;42.782;23.274;2023-04-24T04:50:28;95222.81;;;8.70
42119;BMP280;27783;42.782;23.274;2023-04-24T04:52:54;95224.66;;;8.93
42119;BMP280;27783;42.782;23.274;2023-04-24T04:55:19;95225.38;;;9.24
42119;BMP280;27783;42.782;23.274;2023-04-24T04:57:46;95229.44;;;9.39
42119;BMP280;27783;42.782;23.274;2023-04-24T05:00:12;95230.19;;;9.43
42119;BMP280;27783;42.782;23.274;2023-04-24T05:02:38;95221.81;;;9.71
42119;BMP280;27783;42.782;23.274;2023-04-24T05:05:05;95223.78;;;9.54
42119;BMP280;27783;42.782;23.274;2023-04-24T05:07:30;95230.13;;;9.63
42119;BMP280;27783;42.782;23.274;2023-04-24T05:09:56;95227.06;;;9.78
42119;BMP280;27783;42.782;23.274;2023-04-24T05:12:21;95220.16;;;10.04
42119;BMP280;27783;42.782;23.274;2023-04-24T05:14:46;95229.16;;;10.14
42119;BMP280;27783;42.782;23.274;2023-04-24T05:17:12;95223.31;;;9.82
42119;BMP280;27783;42.782;23.274;2023-04-24T05:19:37;95219.16;;;9.85
42119;BMP280;27783;42.782;23.274;2023-04-24T05:22:04;95225.09;;;9.99
42119;BMP280;27783;42.782;23.274;2023-04-24T05:24:32;95221.59;;;10.22
42119;BMP280;27783;42.782;23.274;2023-04-24T05:26:58;95226.84;;;10.22
42119;BMP280;27783;42.782;23.274;2023-04-24T05:29:24;95226.84;;;10.22
42119;BMP280;27783;42.782;23.274;2023-04-24T05:31:50;95227.34;;;10.04
42119;BMP280;27783;42.782;23.274;2023-04-24T05:34:16;95216.25;;;10.32
42119;BMP280;27783;42.782;23.274;2023-04-24T05:36:41;95214.69;;;10.42
42119;BMP280;27783;42.782;23.274;2023-04-24T05:39:08;95216.81;;;10.57
42119;BMP280;27783;42.782;23.274;2023-04-24T05:41:33;95222.53;;;10.49
42119;BMP280;27783;42.782;23.274;2023-04-24T05:43:59;95214.94;;;10.57
42119;BMP280;27783;42.782;23.274;2023-04-24T05:46:24;95221.00;;;10.97
42119;BMP280;27783;42.782;23.274;2023-04-24T05:48:50;95228.13;;;11.39
42119;BMP280;27783;42.782;23.274;2023-04-24T05:51:15;95232.53;;;11.10
42119;BMP280;27783;42.782;23.274;2023-04-24T05:53:40;95223.50;;;11.50
42119;BMP280;27783;42.782;23.274;2023-04-24T05:56:06;95229.22;;;11.78
42119;BMP280;27783;42.782;23.274;2023-04-24T05:58:32;95217.44;;;12.40
42119;BMP280;27783;42.782;23.274;2023-04-24T06:00:58;95218.38;;;12.53
42119;BMP280;27783;42.782;23.274;2023-04-24T06:03:24;95217.75;;;12.94
42119;BMP280;27783;42.782;23.274;2023-04-24T06:05:53;95221.38;;;13.03
42119;BMP280;27783;42.782;23.274;2023-04-24T06:08:18;95207.78;;;13.01
42119;BMP280;27783;42.782;23.274;2023-04-24T06:10:44;95210.59;;;13.54
42119;BMP280;27783;42.782;23.274;2023-04-24T06:13:10;95209.16;;;14.07
42119;BMP280;27783;42.782;23.274;2023-04-24T06:15:36;95211.59;;;14.51
42119;BMP280;27783;42.782;23.274;2023-04-24T06:18:02;95221.16;;;13.96
42119;BMP280;27783;42.782;23.274;2023-04-24T06:20:27;95214.34;;;14.64
42119;BMP280;27783;42.782;23.274;2023-04-24T06:22:53;95207.69;;;15.18
42119;BMP280;27783;42.782;23.274;2023-04-24T06:25:19;95213.22;;;14.46
42119;BMP280;27783;42.782;23.274;2023-04-24T06:27:44;95215.41;;;14.82
42119;BMP280;27783;42.782;23.274;2023-04-24T06:30:10;95222.59;;;14.34
42119;BMP280;27783;42.782;23.274;2023-04-24T06:32:36;95222.13;;;14.70
42119;BMP280;27783;42.782;23.274;2023-04-24T06:35:01;95218.09;;;14.97
42119;BMP280;27783;42.782;23.274;2023-04-24T06:37:26;95214.94;;;15.02
42119;BMP280;27783;42.782;23.274;2023-04-24T06:39:52;95210.22;;;15.09
42119;BMP280;27783;42.782;23.274;2023-04-24T06:42:17;95212.19;;;15.21
42119;BMP280;27783;42.782;23.274;2023-04-24T06:44:43;95211.53;;;15.01
42119;BMP280;27783;42.782;23.274;2023-04-24T06:47:09;95215.72;;;15.73
42119;BMP280;27783;42.782;23.274;2023-04-24T06:49:37;95215.00;;;14.83
42119;BMP280;27783;42.782;23.274;2023-04-24T06:52:03;95216.69;;;14.43
42119;BMP280;27783;42.782;23.274;2023-04-24T06:54:29;95212.44;;;14.95
42119;BMP280;27783;42.782;23.274;2023-04-24T06:56:55;95210.59;;;15.23
42119;BMP280;27783;42.782;23.274;2023-04-24T06:59:20;95204.78;;;15.44
42119;BMP280;27783;42.782;23.274;2023-04-24T07:01:46;95199.25;;;14.76
42119;BMP280;27783;42.782;23.274;2023-04-24T07:04:11;95190.81;;;15.40
42119;BMP280;27783;42.782;23.274;2023-04-24T07:06:38;95192.47;;;14.91
42119;BMP280;27783;42.782;23.274;2023-04-24T07:09:04;95190.66;;;15.31
42119;BMP280;27783;42.782;23.274;2023-04-24T07:11:30;95190.38;;;15.14
42119;BMP280;27783;42.782;23.274;2023-04-24T07:13:56;95201.50;;;14.78
42119;BMP280;27783;42.782;23.274;2023-04-24T07:16:23;95190.72;;;14.84
42119;BMP280;27783;42.782;23.274;2023-04-24T07:18:48;95189.00;;;15.37
42119;BMP280;27783;42.782;23.274;2023-04-24T07:21:13;95194.16;;;15.44
42119;BMP280;27783;42.782;23.274;2023-04-24T07:23:39;95187.34;;;15.43
42119;BMP280;27783;42.782;23.274;2023-04-24T07:26:06;95184.44;;;15.93
42119;BMP280;27783;42.782;23.274;2023-04-24T07:28:31;95184.94;;;16.52
42119;BMP280;27783;42.782;23.274;2023-04-24T07:30:57;95178.41;;;16.53
42119;BMP280;27783;42.782;23.274;2023-04-24T07:33:23;95185.56;;;16.56
42119;BMP280;27783;42.782;23.274;2023-04-24T07:35:49;95190.69;;;15.86
42119;BMP280;27783;42.782;23.274;2023-04-24T07:38:14;95181.28;;;16.10
42119;BMP280;27783;42.782;23.274;2023-04-24T07:40:40;95174.06;;;16.59
42119;BMP280;27783;42.782;23.274;2023-04-24T07:43:05;95172.88;;;17.08
42119;BMP280;27783;42.782;23.274;2023-04-24T07:45:31;95170.09;;;17.45
42119;BMP280;27783;42.782;23.274;2023-04-24T07:47:59;95171.13;;;17.14
42119;BMP280;27783;42.782;23.274;2023-04-24T07:50:25;95162.88;;;17.75
42119;BMP280;27783;42.782;23.274;2023-04-24T07:52:50;95162.22;;;17.08
42119;BMP280;27783;42.782;23.274;2023-04-24T07:55:16;95171.13;;;17.47
42119;BMP280;27783;42.782;23.274;2023-04-24T07:57:41;95161.34;;;17.65
42119;BMP280;27783;42.782;23.274;2023-04-24T08:00:07;95161.13;;;17.39
42119;BMP280;27783;42.782;23.274;2023-04-24T08:02:33;95160.13;;;18.58
42119;BMP280;27783;42.782;23.274;2023-04-24T08:04:58;95144.22;;;18.55
42119;BMP280;27783;42.782;23.274;2023-04-24T08:07:23;95157.09;;;18.18
42119;BMP280;27783;42.782;23.274;2023-04-24T08:09:49;95142.03;;;19.27
42119;BMP280;27783;42.782;23.274;2023-04-24T08:12:14;95143.22;;;18.61
42119;BMP280;27783;42.782;23.274;2023-04-24T08:14:40;95150.22;;;18.29
42119;BMP280;27783;42.782;23.274;2023-04-24T08:17:05;95144.41;;;18.01
42119;BMP280;27783;42.782;23.274;2023-04-24T08:19:30;95129.13;;;19.43
42119;BMP280;27783;42.782;23.274;2023-04-24T08:21:56;95133.81;;;18.39
42119;BMP280;27783;42.782;23.274;2023-04-24T08:24:22;95129.56;;;19.33
42119;BMP280;27783;42.782;23.274;2023-04-24T08:26:48;95130.63;;;17.94
42119;BMP280;27783;42.782;23.274;2023-04-24T08:29:17;95121.81;;;19.00
42119;BMP280;27783;42.782;23.274;2023-04-24T08:31:42;95128.56;;;19.56
42119;BMP280;27783;42.782;23.274;2023-04-24T08:34:08;95111.16;;;20.36
42119;BMP280;27783;42.782;23.274;2023-04-24T08:36:34;95099.47;;;21.11
42119;BMP280;27783;42.782;23.274;2023-04-24T08:38:59;95097.19;;;20.41
42119;BMP280;27783;42.782;23.274;2023-04-24T08:41:24;95096.00;;;20.87
42119;BMP280;27783;42.782;23.274;2023-04-24T08:43:51;95094.47;;;20.01
42119;BMP280;27783;42.782;23.274;2023-04-24T08:46:18;95098.25;;;19.16
42119;BMP280;27783;42.782;23.274;2023-04-24T08:48:44;95092.28;;;20.94
42119;BMP280;27783;42.782;23.274;2023-04-24T08:51:10;95091.88;;;21.32
42119;BMP280;27783;42.782;23.274;2023-04-24T08:53:36;95086.75;;;19.94
42119;BMP280;27783;42.782;23.274;2023-04-24T08:56:02;95082.84;;;20.98
42119;BMP280;27783;42.782;23.274;2023-04-24T08:58:28;95082.19;;;21.12
42119;BMP280;27783;42.782;23.274;2023-04-24T09:00:55;95070.09;;;20.93
42119;BMP280;27783;42.782;23.274;2023-04-24T09:03:21;95067.53;;;22.96
42119;BMP280;27783;42.782;23.274;2023-04-24T09:05:47;95062.16;;;22.01
42119;BMP280;27783;42.782;23.274;2023-04-24T09:08:14;95053.72;;;22.69
42119;BMP280;27783;42.782;23.274;2023-04-24T09:10:41;95048.50;;;22.32
42119;BMP280;27783;42.782;23.274;2023-04-24T09:13:07;95054.19;;;21.78
42119;BMP280;27783;42.782;23.274;2023-04-24T09:15:35;95052.34;;;21.55
42119;BMP280;27783;42.782;23.274;2023-04-24T09:18:01;95046.34;;;21.88
42119;BMP280;27783;42.782;23.274;2023-04-24T09:20:27;95048.75;;;21.21
42119;BMP280;27783;42.782;23.274;2023-04-24T09:22:57;95039.25;;;21.86
42119;BMP280;27783;42.782;23.274;2023-04-24T09:25:30;95037.34;;;22.20
42119;BMP280;27783;42.782;23.274;2023-04-24T09:28:01;95035.94;;;21.53
42119;BMP280;27783;42.782;23.274;2023-04-24T09:30:28;95034.34;;;21.19
42119;BMP280;27783;42.782;23.274;2023-04-24T09:33:14;95027.78;;;22.66
42119;BMP280;27783;42.782;23.274;2023-04-24T09:35:41;95025.81;;;22.33
42119;BMP280;27783;42.782;23.274;2023-04-24T09:38:08;95018.84;;;22.07
42119;BMP280;27783;42.782;23.274;2023-04-24T09:40:34;95020.53;;;22.72
42119;BMP280;27783;42.782;23.274;2023-04-24T09:43:00;95030.34;;;21.94
42119;BMP280;27783;42.782;23.274;2023-04-24T09:45:28;95014.63;;;23.51
42119;BMP280;27783;42.782;23.274;2023-04-24T09:48:00;95009.72;;;23.25
42119;BMP280;27783;42.782;23.274;2023-04-24T09:50:25;95015.84;;;23.25
42119;BMP280;27783;42.782;23.274;2023-04-24T09:53:04;95001.47;;;24.08
42119;BMP280;27783;42.782;23.274;2023-04-24T09:55:30;94995.16;;;24.92
42119;BMP280;27783;42.782;23.274;2023-04-24T09:58:00;94989.03;;;24.51
42119;BMP280;27783;42.782;23.274;2023-04-24T10:00:31;95005.97;;;22.98
42119;BMP280;27783;42.782;23.274;2023-04-24T10:05:31;94989.94;;;23.28
42119;BMP280;27783;42.782;23.274;2023-04-24T10:10:28;94971.31;;;25.42
42119;BMP280;27783;42.782;23.274;2023-04-24T10:12:55;94972.56;;;23.78
42119;BMP280;27783;42.782;23.274;2023-04-24T10:15:21;94973.66;;;24.52
42119;BMP280;27783;42.782;23.274;2023-04-24T10:17:50;94975.72;;;23.47
42119;BMP280;27783;42.782;23.274;2023-04-24T10:20:24;94965.91;;;21.94
42119;BMP280;27783;42.782;23.274;2023-04-24T10:22:53;94967.53;;;22.20
42119;BMP280;27783;42.782;23.274;2023-04-24T10:25:23;94952.38;;;24.64
42119;BMP280;27783;42.782;23.274;2023-04-24T10:27:51;94939.88;;;25.23
42119;BMP280;27783;42.782;23.274;2023-04-24T10:30:18;94951.78;;;24.50
42119;BMP280;27783;42.782;23.274;2023-04-24T10:32:44;94944.13;;;26.21
42119;BMP280;27783;42.782;23.274;2023-04-24T10:35:12;94943.03;;;24.55
42119;BMP280;27783;42.782;23.274;2023-04-24T10:37:40;94941.00;;;24.50
42119;BMP280;27783;42.782;23.274;2023-04-24T10:40:07;94943.53;;;24.58
42119;BMP280;27783;42.782;23.274;2023-04-24T10:42:34;94928.53;;;24.06
42119;BMP280;27783;42.782;23.274;2023-04-24T10:45:04;94932.28;;;23.09
42119;BMP280;27783;42.782;23.274;2023-04-24T10:47:39;94932.72;;;22.83
42119;BMP280;27783;42.782;23.274;2023-04-24T10:50:09;94913.19;;;25.41
42119;BMP280;27783;42.782;23.274;2023-04-24T10:52:44;94935.59;;;22.55
42119;BMP280;27783;42.782;23.274;2023-04-24T10:55:12;94917.47;;;24.45
42119;BMP280;27783;42.782;23.274;2023-04-24T10:57:38;94911.81;;;24.94
42119;BMP280;27783;42.782;23.274;2023-04-24T11:00:16;94909.69;;;25.20
42119;BMP280;27783;42.782;23.274;2023-04-24T11:02:45;94917.69;;;24.41
42119;BMP280;27783;42.782;23.274;2023-04-24T11:05:17;94915.25;;;24.43
42119;BMP280;27783;42.782;23.274;2023-04-24T11:08:12;94908.66;;;26.51
42119;BMP280;27783;42.782;23.274;2023-04-24T11:10:53;94907.78;;;25.79
42119;BMP280;27783;42.782;23.274;2023-04-24T11:13:23;94899.13;;;26.18
42119;BMP280;27783;42.782;23.274;2023-04-24T11:16:29;94913.16;;;24.58
42119;BMP280;27783;42.782;23.274;2023-04-24T11:21:49;94914.19;;;24.30
42119;BMP280;27783;42.782;23.274;2023-04-24T11:24:38;94927.47;;;22.94
42119;BMP280;27783;42.782;23.274;2023-04-24T11:29:44;94922.63;;;21.02
42119;BMP280;27783;42.782;23.274;2023-04-24T11:35:03;94931.81;;;21.10
42119;BMP280;27783;42.782;23.274;2023-04-24T11:37:34;94926.25;;;20.62
42119;BMP280;27783;42.782;23.274;2023-04-24T11:40:00;94921.25;;;20.92
42119;BMP280;27783;42.782;23.274;2023-04-24T11:42:27;94921.75;;;21.05
42119;BMP280;27783;42.782;23.274;2023-04-24T11:44:53;94906.69;;;22.50
42119;BMP280;27783;42.782;23.274;2023-04-24T11:47:27;94914.53;;;22.73
42119;BMP280;27783;42.782;23.274;2023-04-24T11:49:53;94900.06;;;22.90
42119;BMP280;27783;42.782;23.274;2023-04-24T11:52:19;94902.59;;;22.55
42119;BMP280;27783;42.782;23.274;2023-04-24T11:54:50;94903.81;;;22.01
42119;BMP280;27783;42.782;23.274;2023-04-24T11:57:16;94906.03;;;22.55
42119;BMP280;27783;42.782;23.274;2023-04-24T11:59:43;94903.09;;;22.20
42119;BMP280;27783;42.782;23.274;2023-04-24T12:02:09;94894.25;;;22.53
42119;BMP280;27783;42.782;23.274;2023-04-24T12:04:44;94891.72;;;22.63
42119;BMP280;27783;42.782;23.274;2023-04-24T12:07:10;94884.59;;;22.60
42119;BMP280;27783;42.782;23.274;2023-04-24T12:12:12;94872.91;;;23.38
42119;BMP280;27783;42.782;23.274;2023-04-24T12:14:53;94865.16;;;22.95
42119;BMP280;27783;42.782;23.274;2023-04-24T12:17:30;94866.59;;;23.16
42119;BMP280;27783;42.782;23.274;2023-04-24T12:20:08;94875.09;;;22.45
42119;BMP280;27783;42.782;23.274;2023-04-24T12:22:43;94874.03;;;22.38
42119;BMP280;27783;42.782;23.274;2023-04-24T12:25:11;94868.59;;;22.13
42119;BMP280;27783;42.782;23.274;2023-04-24T12:27:36;94866.84;;;22.10
42119;BMP280;27783;42.782;23.274;2023-04-24T12:30:04;94861.47;;;22.10
42119;BMP280;27783;42.782;23.274;2023-04-24T12:32:30;94848.59;;;22.53
42119;BMP280;27783;42.782;23.274;2023-04-24T12:34:56;94838.38;;;22.37
42119;BMP280;27783;42.782;23.274;2023-04-24T12:37:26;94840.13;;;22.59
42119;BMP280;27783;42.782;23.274;2023-04-24T12:40:06;94838.38;;;22.37
42119;BMP280;27783;42.782;23.274;2023-04-24T12:42:32;94835.94;;;22.39
42119;BMP280;27783;42.782;23.274;2023-04-24T12:45:00;94830.41;;;22.87
42119;BMP280;27783;42.782;23.274;2023-04-24T12:47:27;94811.09;;;22.63
42119;BMP280;27783;42.782;23.274;2023-04-24T12:49:52;94809.25;;;22.30
42119;BMP280;27783;42.782;23.274;2023-04-24T12:52:19;94807.06;;;22.73
42119;BMP280;27783;42.782;23.274;2023-04-24T12:54:48;94803.22;;;22.55
42119;BMP280;27783;42.782;23.274;2023-04-24T12:57:14;94797.38;;;22.81
42119;BMP280;27783;42.782;23.274;2023-04-24T12:59:39;94782.91;;;22.54
42119;BMP280;27783;42.782;23.274;2023-04-24T13:02:06;94795.84;;;21.91
42119;BMP280;27783;42.782;23.274;2023-04-24T13:04:31;94787.66;;;22.00
42119;BMP280;27783;42.782;23.274;2023-04-24T13:06:57;94781.59;;;22.24
42119;BMP280;27783;42.782;23.274;2023-04-24T13:09:23;94777.06;;;21.91
42119;BMP280;27783;42.782;23.274;2023-04-24T13:11:49;94771.16;;;22.07
42119;BMP280;27783;42.782;23.274;2023-04-24T13:14:15;94767.66;;;22.21
42119;BMP280;27783;42.782;23.274;2023-04-24T13:16:40;94770.22;;;21.90
42119;BMP280;27783;42.782;23.274;2023-04-24T13:19:06;94753.94;;;22.38
42119;BMP280;27783;42.782;23.274;2023-04-24T13:21:31;94767.47;;;21.85
42119;BMP280;27783;42.782;23.274;2023-04-24T13:23:57;94753.75;;;22.22
42119;BMP280;27783;42.782;23.274;2023-04-24T13:26:22;94762.28;;;22.65
42119;BMP280;27783;42.782;23.274;2023-04-24T13:28:48;94754.06;;;22.29
42119;BMP280;27783;42.782;23.274;2023-04-24T13:31:14;94756.31;;;22.11
42119;BMP280;27783;42.782;23.274;2023-04-24T13:33:40;94743.44;;;22.40
42119;BMP280;27783;42.782;23.274;2023-04-24T13:36:05;94739.53;;;22.90
42119;BMP280;27783;42.782;23.274;2023-04-24T13:38:34;94733.97;;;22.69
42119;BMP280;27783;42.782;23.274;2023-04-24T13:41:00;94737.56;;;22.61
42119;BMP280;27783;42.782;23.274;2023-04-24T13:43:26;94726.91;;;22.47
42119;BMP280;27783;42.782;23.274;2023-04-24T13:45:52;94724.50;;;22.73
42119;BMP280;27783;42.782;23.274;2023-04-24T13:48:19;94725.34;;;22.60
42119;BMP280;27783;42.782;23.274;2023-04-24T13:50:46;94720.50;;;22.94
42119;BMP280;27783;42.782;23.274;2023-04-24T13:53:13;94710.97;;;23.23
42119;BMP280;27783;42.782;23.274;2023-04-24T13:55:39;94714.94;;;23.33
42119;BMP280;27783;42.782;23.274;2023-04-24T13:58:04;94719.84;;;21.80
42119;BMP280;27783;42.782;23.274;2023-04-24T14:00:30;94708.75;;;21.34
42119;BMP280;27783;42.782;23.274;2023-04-24T14:02:56;94707.25;;;21.00
42119;BMP280;27783;42.782;23.274;2023-04-24T14:05:21;94705.97;;;20.95
42119;BMP280;27783;42.782;23.274;2023-04-24T14:07:47;94697.44;;;20.77
42119;BMP280;27783;42.782;23.274;2023-04-24T14:10:12;94697.44;;;20.77
42119;BMP280;27783;42.782;23.274;2023-04-24T14:12:38;94695.13;;;20.28
42119;BMP280;27783;42.782;23.274;2023-04-24T14:15:04;94699.06;;;20.19